createdAt,value
2022-11-27T00:02:00.727Z,1.77
2022-11-27T00:04:28.665Z,1.60
2022-11-27T00:06:56.576Z,1.60
2022-11-27T00:09:26.252Z,1.43
2022-11-27T00:11:54.150Z,1.60
2022-11-27T00:14:22.024Z,1.83
2022-11-27T00:16:49.937Z,1.73
2022-11-27T00:19:17.885Z,1.67
2022-11-27T00:21:45.764Z,1.60
2022-11-27T00:24:13.657Z,1.43
2022-11-27T00:26:43.263Z,1.60
2022-11-27T00:29:11.126Z,1.50
2022-11-27T00:31:39.140Z,1.80
2022-11-27T00:34:08.034Z,1.40
2022-11-27T00:36:36.073Z,1.40
2022-11-27T00:39:04.413Z,1.40
2022-11-27T00:41:32.360Z,1.60
2022-11-27T00:44:01.609Z,1.53
2022-11-27T00:46:30.824Z,1.80
2022-11-27T00:48:58.885Z,1.70
2022-11-27T00:51:26.747Z,1.50
2022-11-27T00:53:55.003Z,1.40
2022-11-27T00:56:24.920Z,1.53
2022-11-27T00:58:53.147Z,1.40
2022-11-27T01:01:23.254Z,1.67
2022-11-27T01:03:51.284Z,1.50
2022-11-27T01:06:19.459Z,1.70
2022-11-27T01:08:48.159Z,1.50
2022-11-27T01:11:16.681Z,1.40
2022-11-27T01:13:44.627Z,1.77
2022-11-27T01:16:13.436Z,1.30
2022-11-27T01:18:43.538Z,1.60
2022-11-27T01:21:11.522Z,1.30
2022-11-27T01:23:39.385Z,1.80
2022-11-27T01:26:08.398Z,1.40
2022-11-27T01:28:36.303Z,1.57
2022-11-27T01:31:05.786Z,1.70
2022-11-27T01:33:33.695Z,1.50
2022-11-27T01:36:03.688Z,1.70
2022-11-27T01:38:31.694Z,1.37
2022-11-27T01:41:00.017Z,1.70
2022-11-27T01:43:37.880Z,1.50
2022-11-27T01:46:06.175Z,1.77
2022-11-27T01:48:34.253Z,1.60
2022-11-27T01:51:03.509Z,1.37
2022-11-27T01:53:31.479Z,1.40
2022-11-27T01:56:00.311Z,1.63
2022-11-27T01:58:28.839Z,1.70
2022-11-27T02:00:56.708Z,1.40
2022-11-27T02:03:24.809Z,1.50
2022-11-27T02:05:52.780Z,1.40
2022-11-27T02:08:22.046Z,1.47
2022-11-27T02:10:51.267Z,1.50
2022-11-27T02:13:22.200Z,1.50
2022-11-27T02:15:54.474Z,1.30
2022-11-27T02:18:24.475Z,1.50
2022-11-27T02:20:54.623Z,1.57
2022-11-27T02:24:02.040Z,1.60
2022-11-27T02:26:51.655Z,1.87
2022-11-27T02:29:21.050Z,1.60
2022-11-27T02:31:53.338Z,1.50
2022-11-27T02:34:25.536Z,1.30
2022-11-27T02:36:56.603Z,1.40
2022-11-27T02:39:26.861Z,1.67
2022-11-27T02:41:56.641Z,1.37
2022-11-27T02:44:26.101Z,1.30
2022-11-27T02:46:54.125Z,1.33
2022-11-27T02:49:21.997Z,1.40
2022-11-27T02:51:52.324Z,1.50
2022-11-27T02:54:21.309Z,1.90
2022-11-27T02:56:49.303Z,1.50
2022-11-27T02:59:17.171Z,1.30
2022-11-27T03:01:47.334Z,1.80
2022-11-27T03:04:18.060Z,1.40
2022-11-27T03:06:47.312Z,1.17
2022-11-27T03:09:16.466Z,1.73
2022-11-27T03:11:44.475Z,1.30
2022-11-27T03:14:12.420Z,1.60
2022-11-27T03:16:41.827Z,1.40
2022-11-27T03:19:14.161Z,1.30
2022-11-27T03:21:42.704Z,1.40
2022-11-27T03:24:11.026Z,1.60
2022-11-27T03:26:39.138Z,1.40
2022-11-27T03:29:08.729Z,1.60
2022-11-27T03:31:36.737Z,1.70
2022-11-27T03:34:04.640Z,1.40
2022-11-27T03:36:33.904Z,1.80
2022-11-27T03:39:01.800Z,1.60
2022-11-27T03:41:35.917Z,1.60
2022-11-27T03:44:10.635Z,1.60
2022-11-27T03:46:43.761Z,1.20
2022-11-27T03:49:15.014Z,1.60
2022-11-27T03:51:47.829Z,1.33
2022-11-27T03:54:20.546Z,1.63
2022-11-27T03:56:49.882Z,1.53
2022-11-27T03:59:20.256Z,1.43
2022-11-27T04:01:48.255Z,1.20
2022-11-27T04:04:16.310Z,1.40
2022-11-27T04:06:45.596Z,1.60
2022-11-27T04:09:13.494Z,1.40
2022-11-27T04:11:41.406Z,1.40
2022-11-27T04:14:09.503Z,1.50
2022-11-27T04:16:37.501Z,1.20
2022-11-27T04:19:05.390Z,1.53
2022-11-27T04:21:33.302Z,1.70
2022-11-27T04:24:02.651Z,1.20
2022-11-27T04:26:30.587Z,1.30
2022-11-27T04:28:58.466Z,1.60
2022-11-27T04:31:26.502Z,1.70
2022-11-27T04:33:54.458Z,1.20
2022-11-27T04:36:22.487Z,1.40
2022-11-27T04:38:50.408Z,1.53
2022-11-27T04:41:19.677Z,1.37
2022-11-27T04:43:47.561Z,1.40
2022-11-27T04:46:15.475Z,1.20
2022-11-27T04:48:43.390Z,1.30
2022-11-27T04:51:11.315Z,1.67
2022-11-27T04:53:39.187Z,1.50
2022-11-27T04:56:07.522Z,1.50
2022-11-27T04:58:36.812Z,1.27
2022-11-27T05:01:04.735Z,1.40
2022-11-27T05:03:32.711Z,1.40
2022-11-27T05:06:00.585Z,1.30
2022-11-27T05:08:30.354Z,1.40
2022-11-27T05:11:02.540Z,1.10
2022-11-27T05:13:30.512Z,1.40
2022-11-27T05:15:59.913Z,1.30
2022-11-27T05:18:27.931Z,1.63
2022-11-27T05:20:59.166Z,1.70
2022-11-27T05:23:27.171Z,1.30
2022-11-27T05:25:55.041Z,1.30
2022-11-27T05:28:26.588Z,1.37
2022-11-27T05:30:55.116Z,1.43
2022-11-27T05:33:24.457Z,1.30
2022-11-27T05:35:52.386Z,1.40
2022-11-27T05:38:20.268Z,1.40
2022-11-27T05:40:48.081Z,1.20
2022-11-27T05:43:16.004Z,1.27
2022-11-27T05:45:43.900Z,1.23
2022-11-27T05:48:11.806Z,1.70
2022-11-27T05:50:41.173Z,1.10
2022-11-27T05:53:09.076Z,1.27
2022-11-27T05:55:36.937Z,1.13
2022-11-27T05:58:04.866Z,1.30
2022-11-27T06:00:32.726Z,1.20
2022-11-27T06:03:00.825Z,1.30
2022-11-27T06:05:28.792Z,1.43
2022-11-27T06:07:58.155Z,1.10
2022-11-27T06:10:26.179Z,1.30
2022-11-27T06:12:54.107Z,1.50
2022-11-27T06:15:22.418Z,1.20
2022-11-27T06:17:50.268Z,1.27
2022-11-27T06:20:20.281Z,1.20
2022-11-27T06:22:48.143Z,1.10
2022-11-27T06:25:17.703Z,1.37
2022-11-27T06:27:45.598Z,1.40
2022-11-27T06:30:14.415Z,1.20
2022-11-27T06:32:42.264Z,1.40
2022-11-27T06:35:10.783Z,1.20
2022-11-27T06:37:38.659Z,1.43
2022-11-27T06:40:08.057Z,1.30
2022-11-27T06:42:37.348Z,1.20
2022-11-27T06:45:06.067Z,1.37
2022-11-27T06:47:33.970Z,1.50
2022-11-27T06:50:01.821Z,1.40
2022-11-27T06:52:31.942Z,1.30
2022-11-27T06:55:01.524Z,1.20
2022-11-27T06:57:29.400Z,1.23
2022-11-27T06:59:58.689Z,1.20
2022-11-27T07:02:26.623Z,1.30
2022-11-27T07:04:54.566Z,1.50
2022-11-27T07:07:22.845Z,1.20
2022-11-27T07:09:50.824Z,1.30
2022-11-27T07:12:18.680Z,1.13
2022-11-27T07:14:46.578Z,1.10
2022-11-27T07:17:15.803Z,1.37
2022-11-27T07:19:43.737Z,1.50
2022-11-27T07:22:11.782Z,1.20
2022-11-27T07:24:39.939Z,1.37
2022-11-27T07:27:08.663Z,1.23
2022-11-27T07:29:36.611Z,1.40
2022-11-27T07:32:04.534Z,1.30
2022-11-27T07:34:33.890Z,1.40
2022-11-27T07:37:01.753Z,1.30
2022-11-27T07:39:54.454Z,1.30
2022-11-27T07:45:06.302Z,1.40
2022-11-27T07:47:34.190Z,1.30
2022-11-27T07:50:03.451Z,1.30
2022-11-27T07:52:32.277Z,1.23
2022-11-27T07:55:01.539Z,1.30
2022-11-27T07:57:29.465Z,1.27
2022-11-27T07:59:57.359Z,1.10
2022-11-27T08:02:25.215Z,1.10
2022-11-27T08:04:53.190Z,1.23
2022-11-27T08:07:22.522Z,1.40
2022-11-27T08:09:50.383Z,1.37
2022-11-27T08:12:18.266Z,1.20
2022-11-27T08:14:46.179Z,1.33
2022-11-27T08:17:14.081Z,1.43
2022-11-27T08:19:42.002Z,1.20
2022-11-27T08:22:12.899Z,1.33
2022-11-27T08:24:43.195Z,1.40
2022-11-27T08:27:11.215Z,1.30
2022-11-27T08:29:39.296Z,1.43
2022-11-27T08:32:07.340Z,1.37
2022-11-27T08:34:35.277Z,1.30
2022-11-27T08:37:03.185Z,1.30
2022-11-27T08:39:31.037Z,0.93
2022-11-27T08:42:00.729Z,1.10
2022-11-27T08:44:28.585Z,1.20
2022-11-27T08:46:56.509Z,1.13
2022-11-27T08:49:24.543Z,1.30
2022-11-27T08:51:52.413Z,1.27
2022-11-27T08:54:20.315Z,1.40
2022-11-27T08:56:48.168Z,1.33
2022-11-27T08:59:17.467Z,1.10
2022-11-27T09:01:45.348Z,1.10
2022-11-27T09:04:13.409Z,1.40
2022-11-27T09:06:41.985Z,1.30
2022-11-27T09:09:09.896Z,1.10
2022-11-27T09:11:37.915Z,1.27
2022-11-27T09:14:06.008Z,1.20
2022-11-27T09:16:35.400Z,1.10
2022-11-27T09:19:03.479Z,1.10
2022-11-27T09:21:31.736Z,1.10
2022-11-27T09:24:00.614Z,1.30
2022-11-27T09:26:28.695Z,1.37
2022-11-27T09:28:56.773Z,1.00
2022-11-27T09:31:24.683Z,1.30
2022-11-27T09:33:54.035Z,1.10
2022-11-27T09:36:22.894Z,1.10
2022-11-27T09:38:50.807Z,1.10
2022-11-27T09:41:40.726Z,1.13
2022-11-27T09:44:18.942Z,1.10
2022-11-27T09:46:46.856Z,1.20
2022-11-27T09:49:19.133Z,1.00
2022-11-27T09:51:49.243Z,1.17
2022-11-27T09:54:18.772Z,1.10
2022-11-27T09:56:48.068Z,1.10
2022-11-27T09:59:17.252Z,1.30
2022-11-27T10:01:50.440Z,1.20
2022-11-27T10:04:20.954Z,1.10
2022-11-27T10:07:00.581Z,1.27
2022-11-27T10:09:31.622Z,1.20
2022-11-27T10:12:02.871Z,1.10
2022-11-27T10:14:37.308Z,1.20
2022-11-27T10:17:06.679Z,1.40
2022-11-27T10:19:39.782Z,1.17
2022-11-27T10:22:16.612Z,1.20
2022-11-27T10:24:49.814Z,1.30
2022-11-27T10:27:21.043Z,1.20
2022-11-27T10:29:50.480Z,1.27
2022-11-27T10:32:52.794Z,1.40
2022-11-27T10:35:12.027Z,1.00
2022-11-27T10:37:40.970Z,1.00
2022-11-27T10:40:17.217Z,1.43
2022-11-27T10:42:47.127Z,1.17
2022-11-27T10:45:21.365Z,1.30
2022-11-27T10:47:49.473Z,1.23
2022-11-27T10:50:19.525Z,1.20
2022-11-27T10:52:51.107Z,1.10
2022-11-27T10:55:26.248Z,1.20
2022-11-27T10:58:01.254Z,1.30
2022-11-27T11:00:29.149Z,1.40
2022-11-27T11:03:01.143Z,1.13
2022-11-27T11:05:41.431Z,1.23
2022-11-27T11:08:18.052Z,1.20
2022-11-27T11:10:47.613Z,1.20
2022-11-27T11:13:19.782Z,1.27
2022-11-27T11:15:53.133Z,1.30
2022-11-27T11:18:22.102Z,1.00
2022-11-27T11:20:52.568Z,1.10
2022-11-27T11:23:22.676Z,1.03
2022-11-27T11:25:51.670Z,1.23
2022-11-27T11:28:19.764Z,1.10
2022-11-27T11:30:54.606Z,1.30
2022-11-27T11:33:22.496Z,1.30
2022-11-27T11:35:54.375Z,1.10
2022-11-27T11:38:26.442Z,1.17
2022-11-27T11:40:59.512Z,1.10
2022-11-27T11:43:27.942Z,1.10
2022-11-27T11:45:56.377Z,1.10
2022-11-27T11:48:27.786Z,0.90
2022-11-27T11:50:59.019Z,1.10
2022-11-27T11:53:29.692Z,1.03
2022-11-27T11:56:00.457Z,1.10
2022-11-27T11:58:45.923Z,1.00
2022-11-27T12:01:27.458Z,1.20
2022-11-27T12:04:03.743Z,1.10
2022-11-27T12:06:42.900Z,1.20
2022-11-27T12:09:20.896Z,1.30
2022-11-27T12:11:52.483Z,1.17
2022-11-27T12:14:26.961Z,1.13
2022-11-27T12:17:03.462Z,1.20
2022-11-27T12:19:47.538Z,1.23
2022-11-27T12:22:23.278Z,1.30
2022-11-27T12:24:56.187Z,1.00
2022-11-27T12:27:28.382Z,1.10
2022-11-27T12:30:07.903Z,1.23
2022-11-27T12:32:45.496Z,1.07
2022-11-27T12:35:34.474Z,1.27
2022-11-27T12:38:13.306Z,1.00
2022-11-27T12:40:49.817Z,1.10
2022-11-27T12:43:20.644Z,1.00
2022-11-27T12:45:50.349Z,1.10
2022-11-27T12:48:19.308Z,1.07
2022-11-27T12:50:49.160Z,1.10
2022-11-27T12:53:24.708Z,1.00
2022-11-27T12:55:59.899Z,1.20
2022-11-27T12:58:29.460Z,1.00
2022-11-27T13:00:59.609Z,1.30
2022-11-27T13:03:31.516Z,1.20
2022-11-27T13:06:00.295Z,1.13
2022-11-27T13:08:31.438Z,1.30
2022-11-27T13:11:02.195Z,1.00
2022-11-27T13:13:31.364Z,1.30
2022-11-27T13:16:00.068Z,1.20
2022-11-27T13:18:32.039Z,1.10
2022-11-27T13:21:00.201Z,1.10
2022-11-27T13:23:32.824Z,1.13
2022-11-27T13:26:01.453Z,1.10
2022-11-27T13:28:36.732Z,1.10
2022-11-27T13:31:04.640Z,1.10
2022-11-27T13:33:36.918Z,1.30
2022-11-27T13:36:07.063Z,0.97
2022-11-27T13:38:38.397Z,1.20
2022-11-27T13:41:07.022Z,1.10
2022-11-27T13:43:42.213Z,1.20
2022-11-27T13:46:19.148Z,1.17
2022-11-27T13:48:49.370Z,1.23
2022-11-27T13:51:24.851Z,1.20
2022-11-27T13:53:54.158Z,1.20
2022-11-27T13:56:30.149Z,1.10
2022-11-27T13:58:58.144Z,1.20
2022-11-27T14:01:26.361Z,1.13
2022-11-27T14:03:54.300Z,1.00
2022-11-27T14:06:27.255Z,1.20
2022-11-27T14:08:58.307Z,0.90
2022-11-27T14:11:37.138Z,1.30
2022-11-27T14:14:13.980Z,1.20
2022-11-27T14:16:42.630Z,1.07
2022-11-27T14:19:29.383Z,1.30
2022-11-27T14:22:00.131Z,1.00
2022-11-27T14:24:40.864Z,1.20
2022-11-27T14:27:16.875Z,1.10
2022-11-27T14:29:44.756Z,1.20
2022-11-27T14:32:13.823Z,1.20
2022-11-27T14:34:41.972Z,1.00
2022-11-27T14:37:21.360Z,1.20
2022-11-27T14:39:50.618Z,1.00
2022-11-27T14:42:25.054Z,1.10
2022-11-27T14:45:02.802Z,1.10
2022-11-27T14:47:30.748Z,1.30
2022-11-27T14:49:58.606Z,1.10
2022-11-27T14:52:26.482Z,1.20
2022-11-27T14:54:55.836Z,1.20
2022-11-27T14:57:25.077Z,0.90
2022-11-27T15:00:05.157Z,1.20
2022-11-27T15:02:33.449Z,1.10
2022-11-27T15:05:05.934Z,1.10
2022-11-27T15:07:39.805Z,1.17
2022-11-27T15:10:22.206Z,1.03
2022-11-27T15:12:50.138Z,1.10
2022-11-27T15:15:20.714Z,1.13
2022-11-27T15:17:50.355Z,1.03
2022-11-27T15:20:24.637Z,1.00
2022-11-27T15:22:52.969Z,1.10
2022-11-27T15:25:34.707Z,1.13
2022-11-27T15:28:02.642Z,1.20
2022-11-27T15:30:30.634Z,1.10
2022-11-27T15:32:58.686Z,1.10
2022-11-27T15:35:27.889Z,1.30
2022-11-27T15:37:56.408Z,1.20
2022-11-27T15:40:28.635Z,1.10
2022-11-27T15:42:57.943Z,1.00
2022-11-27T15:45:28.652Z,1.10
2022-11-27T15:47:59.762Z,1.10
2022-11-27T15:50:27.616Z,1.00
2022-11-27T15:52:55.550Z,0.90
2022-11-27T15:55:23.512Z,1.00
2022-11-27T15:57:51.450Z,1.07
2022-11-27T16:00:23.100Z,1.10
2022-11-27T16:02:52.519Z,1.10
2022-11-27T16:05:20.640Z,1.10
2022-11-27T16:07:53.582Z,1.07
2022-11-27T16:10:23.022Z,1.10
2022-11-27T16:12:54.861Z,1.13
2022-11-27T16:15:26.669Z,1.10
2022-11-27T16:17:58.021Z,1.20
2022-11-27T16:20:26.073Z,1.00
2022-11-27T16:22:53.961Z,1.10
2022-11-27T16:25:21.908Z,1.03
2022-11-27T16:27:49.925Z,0.90
2022-11-27T16:30:19.924Z,1.10
2022-11-27T16:32:49.262Z,1.10
2022-11-27T16:35:17.192Z,1.10
2022-11-27T16:37:45.110Z,1.10
2022-11-27T16:40:14.499Z,1.00
2022-11-27T16:42:42.457Z,1.20
2022-11-27T16:45:10.949Z,1.00
2022-11-27T16:47:38.850Z,1.00
2022-11-27T16:50:10.404Z,1.23
2022-11-27T16:52:38.320Z,1.10
2022-11-27T16:55:07.009Z,1.00
2022-11-27T16:57:34.964Z,1.00
2022-11-27T17:00:02.869Z,0.90
2022-11-27T17:02:30.905Z,1.20
2022-11-27T17:04:59.060Z,1.30
2022-11-27T17:07:28.427Z,0.93
2022-11-27T17:09:56.316Z,1.10
2022-11-27T17:12:24.203Z,1.00
2022-11-27T17:14:52.123Z,1.30
2022-11-27T17:17:20.001Z,1.10
2022-11-27T17:19:49.129Z,1.10
2022-11-27T17:22:17.062Z,1.00
2022-11-27T17:24:46.426Z,1.00
2022-11-27T17:27:14.739Z,1.10
2022-11-27T17:29:43.031Z,1.10
2022-11-27T17:32:12.970Z,1.10
2022-11-27T17:34:40.995Z,1.20
2022-11-27T17:37:08.949Z,1.07
2022-11-27T17:39:36.931Z,1.10
2022-11-27T17:42:11.481Z,1.07
2022-11-27T17:44:40.831Z,1.03
2022-11-27T17:47:08.743Z,1.17
2022-11-27T17:49:36.669Z,0.90
2022-11-27T17:52:06.567Z,1.00
2022-11-27T17:54:34.845Z,1.27
2022-11-27T17:57:02.753Z,1.10
2022-11-27T17:59:32.085Z,0.90
2022-11-27T18:02:00.128Z,1.10
2022-11-27T18:04:30.793Z,1.00
2022-11-27T18:06:58.765Z,1.20
2022-11-27T18:09:26.647Z,1.10
2022-11-27T18:11:55.559Z,1.10
2022-11-27T18:14:23.527Z,1.00
2022-11-27T18:16:52.792Z,1.00
2022-11-27T18:19:21.374Z,0.90
2022-11-27T18:21:49.379Z,1.20
2022-11-27T18:24:25.303Z,1.20
2022-11-27T18:27:09.499Z,1.10
2022-11-27T18:29:37.916Z,0.90
2022-11-27T18:32:07.632Z,1.00
2022-11-27T18:34:35.658Z,1.00
2022-11-27T18:37:03.577Z,1.00
2022-11-27T18:39:31.647Z,1.03
2022-11-27T18:41:59.566Z,1.10
2022-11-27T18:44:27.801Z,1.10
2022-11-27T18:46:55.909Z,1.07
2022-11-27T18:49:25.208Z,1.00
2022-11-27T18:51:53.505Z,1.07
2022-11-27T18:54:21.767Z,1.10
2022-11-27T18:56:49.776Z,1.03
2022-11-27T18:59:17.708Z,1.00
2022-11-27T19:01:45.672Z,1.07
2022-11-27T19:04:14.980Z,0.90
2022-11-27T19:06:44.322Z,1.10
2022-11-27T19:09:12.370Z,1.10
2022-11-27T19:11:42.685Z,1.00
2022-11-27T19:14:10.786Z,1.00
2022-11-27T19:16:42.050Z,1.00
2022-11-27T19:19:49.436Z,1.10
2022-11-27T19:21:59.653Z,1.00
2022-11-27T19:24:27.616Z,1.10
2022-11-27T19:26:57.740Z,1.10
2022-11-27T19:29:25.605Z,1.07
2022-11-27T19:31:58.866Z,1.00
2022-11-27T19:34:26.877Z,1.10
2022-11-27T19:36:54.763Z,0.90
2022-11-27T19:39:24.084Z,1.00
2022-11-27T19:41:52.082Z,0.90
2022-11-27T19:44:19.993Z,1.03
2022-11-27T19:46:47.962Z,1.00
2022-11-27T19:49:17.696Z,1.00
2022-11-27T19:51:45.734Z,1.00
2022-11-27T19:54:13.940Z,0.90
2022-11-27T19:56:43.342Z,0.97
2022-11-27T19:59:11.422Z,0.80
2022-11-27T20:01:40.255Z,1.10
2022-11-27T20:04:08.717Z,0.83
2022-11-27T20:06:36.622Z,1.00
2022-11-27T20:09:05.353Z,1.10
2022-11-27T20:11:35.134Z,1.10
2022-11-27T20:14:05.125Z,1.20
2022-11-27T20:16:33.211Z,1.23
2022-11-27T20:19:02.144Z,1.00
2022-11-27T20:21:30.009Z,0.90
2022-11-27T20:23:57.986Z,1.43
2022-11-27T20:26:28.276Z,1.63
2022-11-27T20:28:56.305Z,1.63
2022-11-27T20:31:26.921Z,1.73
2022-11-27T20:33:55.516Z,2.37
2022-11-27T20:36:23.547Z,2.33
2022-11-27T20:38:51.792Z,2.07
2022-11-27T20:41:20.459Z,1.90
2022-11-27T20:43:48.365Z,2.00
2022-11-27T20:46:16.600Z,2.77
2022-11-27T20:48:47.662Z,3.37
2022-11-27T20:51:16.794Z,2.33
2022-11-27T20:53:45.568Z,2.20
2022-11-27T20:56:14.354Z,2.00
2022-11-27T20:58:42.948Z,2.10
2022-11-27T21:01:20.964Z,3.00
2022-11-27T21:03:53.837Z,2.87
2022-11-27T21:06:22.700Z,1.83
2022-11-27T21:08:50.640Z,2.50
2022-11-27T21:11:25.109Z,2.43
2022-11-27T21:13:53.398Z,2.57
2022-11-27T21:16:21.363Z,1.80
2022-11-27T21:18:54.642Z,2.30
2022-11-27T21:21:22.656Z,2.13
2022-11-27T21:23:50.697Z,2.53
2022-11-27T21:26:18.691Z,2.57
2022-11-27T21:28:47.166Z,2.20
2022-11-27T21:31:17.305Z,1.97
2022-11-27T21:33:46.732Z,1.93
2022-11-27T21:36:16.183Z,1.90
2022-11-27T21:38:44.255Z,2.20
2022-11-27T21:41:13.969Z,1.90
2022-11-27T21:43:41.937Z,2.87
2022-11-27T21:46:10.181Z,2.13
2022-11-27T21:48:38.065Z,2.00
2022-11-27T21:51:12.686Z,2.60
2022-11-27T21:53:45.436Z,2.20
2022-11-27T21:56:14.684Z,1.90
2022-11-27T21:58:42.792Z,2.00
2022-11-27T22:01:15.095Z,1.80
2022-11-27T22:03:47.005Z,1.70
2022-11-27T22:06:15.970Z,2.03
2022-11-27T22:08:45.969Z,1.60
2022-11-27T22:11:14.603Z,1.77
2022-11-27T22:13:42.556Z,1.80
2022-11-27T22:16:10.942Z,1.50
2022-11-27T22:18:39.035Z,2.00
2022-11-27T22:21:07.595Z,1.77
2022-11-27T22:23:35.558Z,1.97
2022-11-27T22:26:04.988Z,2.00
2022-11-27T22:28:32.955Z,2.40
2022-11-27T22:31:01.945Z,2.27
2022-11-27T22:33:29.889Z,1.53
2022-11-27T22:35:57.826Z,2.20
2022-11-27T22:38:25.752Z,2.30
2022-11-27T22:40:59.009Z,1.97
2022-11-27T22:43:28.346Z,1.43
2022-11-27T22:45:56.281Z,1.90
2022-11-27T22:48:24.198Z,1.47
2022-11-27T22:50:56.807Z,1.60
2022-11-27T22:53:24.687Z,1.97
2022-11-27T22:55:52.606Z,2.00
2022-11-27T22:58:20.607Z,1.90
2022-11-27T23:00:54.799Z,2.57
2022-11-27T23:03:22.762Z,2.23
2022-11-27T23:05:50.721Z,1.87
2022-11-27T23:08:19.064Z,1.30
2022-11-27T23:10:50.496Z,2.27
2022-11-27T23:13:18.512Z,2.07
2022-11-27T23:15:46.747Z,2.00
2022-11-27T23:18:16.053Z,1.87
2022-11-27T23:20:43.974Z,1.70
2022-11-27T23:23:12.255Z,1.83
2022-11-27T23:25:40.307Z,1.40
2022-11-27T23:28:08.186Z,1.77
2022-11-27T23:30:36.188Z,1.73
2022-11-27T23:33:04.121Z,2.00
2022-11-27T23:35:33.452Z,1.90
2022-11-27T23:38:01.413Z,1.90
2022-11-27T23:40:29.354Z,1.57
2022-11-27T23:42:57.248Z,1.97
2022-11-27T23:45:25.302Z,2.00
2022-11-27T23:47:53.191Z,1.70
2022-11-27T23:50:21.093Z,1.70
2022-11-27T23:52:50.649Z,1.73
2022-11-27T23:55:18.699Z,1.67
2022-11-27T23:57:46.569Z,2.00
